Aviation Digital Data Service (ADDS)

Output produced by METARs form (0619 UTC 26 November 2014)
found at http://www.aviationweather.gov/adds/metars/
 
KTHV 260553Z AUTO 00000KT 10SM CLR 03/01 A3016 RMK AO2 SLP218 T00280006 10033 21006 51011
KTHV 260453Z AUTO 00000KT 10SM CLR 03/00 A3016 RMK AO2 SLP218 T00280000 401721006
KTHV 260353Z AUTO 00000KT 10SM CLR 02/00 A3014 RMK AO2 SLP212 T00220000
KTHV 260253Z AUTO 00000KT 10SM CLR 01/M01 A3013 RMK AO2 SLP208 T00061011 51011
KTHV 260153Z AUTO 27003KT 10SM CLR 00/M02 A3013 RMK AO2 SLP207 T00001017
KTHV 260053Z AUTO 11004KT 10SM CLR 00/M02 A3011 RMK AO2 SLP202 T00001017
KTHV 252353Z AUTO 00000KT 10SM CLR 02/M02 A3009 RMK AO2 SLP196 T00171017 10128 20011 53020
KTHV 252253Z AUTO 00000KT 10SM CLR 03/M02 A3007 RMK AO2 SLP187 T00281017
KTHV 252153Z AUTO 00000KT 10SM CLR 07/M02 A3003 RMK AO2 SLP174 T00721017
KTHV 252053Z AUTO 28009KT 10SM CLR 12/M02 A3003 RMK AO2 SLP173 T01171017 53002
KTHV 251953Z AUTO 28009KT 10SM CLR 12/M02 A3002 RMK AO2 SLP167 T01171017
KTHV 251853Z AUTO 27007G15KT 10SM CLR 12/M02 A3003 RMK AO2 SLP170 T01221022
KTHV 251753Z AUTO 28008KT 10SM CLR 12/M02 A3003 RMK AO2 SLP169 T01221022 10122 20094 58005
KTHV 251653Z AUTO 27009G16KT 10SM CLR 11/M02 A3005 RMK AO2 SLP178 T01111022
KTHV 251553Z AUTO 26005KT 10SM CLR 11/M01 A3006 RMK AO2 SLP181 T01061011
KTHV 251453Z AUTO 28010KT 10SM CLR 10/M01 A3004 RMK AO2 SLP176 T01001011 51022
KTHV 251353Z AUTO 28007KT 10SM CLR 09/M01 A3004 RMK AO2 SLP174 T00941011
KTHV 251253Z AUTO 28010KT 10SM CLR 09/M01 A3000 RMK AO2 SLP161 T00941011
KTHV 251153Z AUTO 28007KT 10SM CLR 10/00 A2998 RMK AO2 SLP152 T01000000 10167 20100 51029
KTHV 251053Z AUTO 28006KT 10SM CLR 11/02 A2995 RMK AO2 SLP145 T01110017
KTHV 250953Z AUTO 30008KT 10SM CLR 12/02 A2992 RMK AO2 SLP133 T01170022
KTHV 250853Z AUTO 29011G18KT 10SM CLR 13/02 A2989 RMK AO2 SLP122 T01280022 53034
KTHV 250753Z AUTO 29005KT 10SM CLR 13/02 A2985 RMK AO2 SLP108 T01280017
KTHV 250653Z AUTO 29005KT 10SM FEW065 12/05 A2982 RMK AO2 SLP098 T01220050
KTHV 250553Z AUTO 24006KT 10SM CLR 17/04 A2979 RMK AO2 SLP086 T01670044 10189 20161 51023
KTHV 250453Z AUTO 23007KT 10SM CLR 17/09 A2978 RMK AO2 SLP084 T01670089 402060111
KTHV 250353Z AUTO 21012G19KT 10SM CLR 17/11 A2976 RMK AO2 SLP076 T01720111
KTHV 250253Z AUTO 19003KT 10SM CLR 17/11 A2972 RMK AO2 SLP063 T01670106 53025
KTHV 250153Z AUTO 20006KT 10SM CLR 18/11 A2968 RMK AO2 SLP050 T01780106
KTHV 250053Z AUTO 19007G16KT 10SM CLR 19/11 A2965 RMK AO2 SLP042 T01890106
KTHV 242353Z AUTO 20008G15KT 10SM CLR 19/11 A2964 RMK AO2 SLP037 T01890106 10206 20189 51019
KTHV 242253Z AUTO 20009KT 10SM CLR 19/10 A2962 RMK AO2 SLP030 T01890100
KTHV 242153Z AUTO 20010G15KT 10SM CLR 19/10 A2960 RMK AO2 SLP024 T01940100
KTHV 242053Z AUTO 19011KT 10SM CLR 20/11 A2958 RMK AO2 SLP017 T02000106 53009
KTHV 241953Z AUTO 20008G18KT 10SM CLR 21/12 A2956 RMK AO2 PK WND 19028/1908 SLP010 T02060117
KTHV 241853Z AUTO 19017G26KT 10SM CLR 21/12 A2955 RMK AO2 PK WND 21027/1754 SLP005 T02060117